createdAt,value
2018-05-15T00:00:48.735Z,11.65
2018-05-15T00:01:48.735Z,11.61
2018-05-15T00:02:48.736Z,11.61
2018-05-15T00:03:48.736Z,11.54
2018-05-15T00:04:48.737Z,11.54
2018-05-15T00:05:48.737Z,11.54
2018-05-15T00:06:48.737Z,11.50
2018-05-15T00:07:48.746Z,11.50
2018-05-15T00:08:48.739Z,11.53
2018-05-15T00:09:48.738Z,11.53
2018-05-15T00:10:48.737Z,11.41
2018-05-15T00:11:48.737Z,11.44
2018-05-15T00:12:48.735Z,11.52
2018-05-15T00:13:48.738Z,11.47
2018-05-15T00:14:48.743Z,11.39
2018-05-15T00:15:48.743Z,11.43
2018-05-15T00:16:48.735Z,11.36
2018-05-15T00:17:48.737Z,11.38
2018-05-15T00:18:48.737Z,11.34
2018-05-15T00:19:48.735Z,11.29
2018-05-15T00:20:48.735Z,11.25
2018-05-15T00:21:48.736Z,11.31
2018-05-15T00:22:48.735Z,11.29
2018-05-15T00:23:48.738Z,11.31
2018-05-15T00:24:48.736Z,11.34
2018-05-15T00:25:48.737Z,11.28
2018-05-15T00:26:48.733Z,11.32
2018-05-15T00:27:48.734Z,11.35
2018-05-15T00:28:48.732Z,11.34
2018-05-15T00:29:48.735Z,11.38
2018-05-15T00:30:48.737Z,11.31
2018-05-15T00:31:48.734Z,11.31
2018-05-15T00:32:48.733Z,11.34
2018-05-15T00:33:48.733Z,11.35
2018-05-15T00:34:48.733Z,11.27
2018-05-15T00:35:48.731Z,11.31
2018-05-15T00:36:48.733Z,11.25
2018-05-15T00:37:49.667Z,11.25
2018-05-15T00:38:49.609Z,11.28
2018-05-15T00:39:48.731Z,11.32
2018-05-15T00:40:48.736Z,11.25
2018-05-15T00:41:48.730Z,11.24
2018-05-15T00:42:48.731Z,11.24
2018-05-15T00:43:48.729Z,11.24
2018-05-15T00:44:48.809Z,11.20
2018-05-15T00:45:48.730Z,11.14
2018-05-15T00:46:48.729Z,11.16
2018-05-15T00:47:48.728Z,11.20
2018-05-15T00:48:48.727Z,11.21
2018-05-15T00:49:48.726Z,11.29
2018-05-15T00:50:48.727Z,11.24
2018-05-15T00:51:48.726Z,11.28
2018-05-15T00:52:48.726Z,11.25
2018-05-15T00:53:48.731Z,11.11
2018-05-15T00:54:48.726Z,11.03
2018-05-15T00:55:48.727Z,11.10
2018-05-15T00:56:48.738Z,11.11
2018-05-15T00:57:48.723Z,11.09
2018-05-15T00:58:48.724Z,11.06
2018-05-15T00:59:48.723Z,11.06
2018-05-15T01:00:48.744Z,11.03
2018-05-15T01:01:48.722Z,10.98
2018-05-15T01:02:48.723Z,10.86
2018-05-15T01:03:48.722Z,10.95
2018-05-15T01:04:48.721Z,10.94
2018-05-15T01:05:48.721Z,10.98
2018-05-15T01:06:48.787Z,10.89
2018-05-15T01:07:48.721Z,10.91
2018-05-15T01:08:48.721Z,10.84
2018-05-15T01:09:48.719Z,10.89
2018-05-15T01:10:48.718Z,10.81
2018-05-15T01:11:48.719Z,10.86
2018-05-15T01:12:48.722Z,10.77
2018-05-15T01:13:48.717Z,10.84
2018-05-15T01:14:48.721Z,10.91
2018-05-15T01:15:48.719Z,10.89
2018-05-15T01:16:48.718Z,10.86
2018-05-15T01:17:48.716Z,10.86
2018-05-15T01:18:48.715Z,10.96
2018-05-15T01:19:48.713Z,10.95
2018-05-15T01:20:48.714Z,10.83
2018-05-15T01:21:48.714Z,10.83
2018-05-15T01:22:48.712Z,10.88
2018-05-15T01:23:48.711Z,10.94
2018-05-15T01:24:48.716Z,10.91
2018-05-15T01:25:48.709Z,10.88
2018-05-15T01:26:48.711Z,10.78
2018-05-15T01:27:48.709Z,10.83
2018-05-15T01:28:48.710Z,10.80
2018-05-15T01:29:48.710Z,10.84
2018-05-15T01:30:48.708Z,10.81
2018-05-15T01:31:48.710Z,10.77
2018-05-15T01:32:48.707Z,10.86
2018-05-15T01:33:48.707Z,10.80
2018-05-15T01:34:48.705Z,10.84
2018-05-15T01:35:48.706Z,10.81
2018-05-15T01:36:48.708Z,10.89
2018-05-15T01:37:48.703Z,10.91
2018-05-15T01:38:48.703Z,10.96
2018-05-15T01:39:48.703Z,10.81
2018-05-15T01:40:48.702Z,10.84
2018-05-15T01:41:48.702Z,10.88
2018-05-15T01:42:48.701Z,10.98
2018-05-15T01:43:48.700Z,10.88
2018-05-15T01:44:48.700Z,10.88
2018-05-15T01:45:48.700Z,10.84
2018-05-15T01:46:48.699Z,10.84
2018-05-15T01:47:48.699Z,10.78
2018-05-15T01:48:48.697Z,10.73
2018-05-15T01:49:48.700Z,10.78
2018-05-15T01:50:48.695Z,10.74
2018-05-15T01:51:48.692Z,10.71
2018-05-15T01:52:48.692Z,10.71
2018-05-15T01:53:48.693Z,10.70
2018-05-15T01:54:48.694Z,10.70
2018-05-15T01:55:48.692Z,10.62
2018-05-15T01:56:48.692Z,10.66
2018-05-15T01:57:48.691Z,10.58
2018-05-15T01:58:48.690Z,10.53
2018-05-15T01:59:48.688Z,10.55
2018-05-15T02:00:49.622Z,10.55
2018-05-15T02:01:48.688Z,10.59
2018-05-15T02:02:48.685Z,10.73
2018-05-15T02:03:48.685Z,10.59
2018-05-15T02:04:48.685Z,10.55
2018-05-15T02:05:48.694Z,10.66
2018-05-15T02:06:48.688Z,10.59
2018-05-15T02:07:48.688Z,10.62
2018-05-15T02:08:48.683Z,10.55
2018-05-15T02:09:51.678Z,10.62
2018-05-15T02:10:48.679Z,10.55
2018-05-15T02:11:48.692Z,10.55
2018-05-15T02:12:48.686Z,10.42
2018-05-15T02:13:48.677Z,10.56
2018-05-15T02:14:48.677Z,10.52
2018-05-15T02:15:48.677Z,10.51
2018-05-15T02:16:48.685Z,10.43
2018-05-15T02:17:48.675Z,10.43
2018-05-15T02:18:48.676Z,10.39
2018-05-15T02:19:48.672Z,10.34
2018-05-15T02:20:48.672Z,10.26
2018-05-15T02:21:48.671Z,10.15
2018-05-15T02:22:48.670Z,10.21
2018-05-15T02:23:48.669Z,10.18
2018-05-15T02:24:48.669Z,10.14
2018-05-15T02:25:48.669Z,10.19
2018-05-15T02:26:48.667Z,10.15
2018-05-15T02:27:48.673Z,10.22
2018-05-15T02:28:48.663Z,10.19
2018-05-15T02:29:48.665Z,10.21
2018-05-15T02:30:48.664Z,10.26
2018-05-15T02:31:48.671Z,10.21
2018-05-15T02:32:48.661Z,10.18
2018-05-15T02:33:48.660Z,10.19
2018-05-15T02:34:48.660Z,10.26
2018-05-15T02:35:48.666Z,10.25
2018-05-15T02:36:48.657Z,10.24
2018-05-15T02:37:48.664Z,10.18
2018-05-15T02:38:48.656Z,9.97
2018-05-15T02:39:48.654Z,10.03
2018-05-15T02:40:48.655Z,9.99
2018-05-15T02:41:48.652Z,10.09
2018-05-15T02:42:48.651Z,9.96
2018-05-15T02:43:48.652Z,10.07
2018-05-15T02:44:48.650Z,10.04
2018-05-15T02:45:48.648Z,9.91
2018-05-15T02:46:48.649Z,9.94
2018-05-15T02:47:48.645Z,9.94
2018-05-15T02:48:48.645Z,9.97
2018-05-15T02:49:48.645Z,9.96
2018-05-15T02:50:48.647Z,9.93
2018-05-15T02:51:48.649Z,9.89
2018-05-15T02:52:48.641Z,10.03
2018-05-15T02:53:48.639Z,9.89
2018-05-15T02:54:48.640Z,9.91
2018-05-15T02:55:48.649Z,9.85
2018-05-15T02:56:48.638Z,9.83
2018-05-15T02:57:48.634Z,9.93
2018-05-15T02:58:48.634Z,9.96
2018-05-15T02:59:48.633Z,9.97
2018-05-15T03:00:48.631Z,9.94
2018-05-15T03:01:48.632Z,9.88
2018-05-15T03:02:48.632Z,9.96
2018-05-15T03:03:48.628Z,9.96
2018-05-15T03:04:48.626Z,9.97
2018-05-15T03:05:48.626Z,9.96
2018-05-15T03:06:48.630Z,10.00
2018-05-15T03:07:48.625Z,9.96
2018-05-15T03:08:48.656Z,9.96
2018-05-15T03:09:48.626Z,9.86
2018-05-15T03:10:48.618Z,9.89
2018-05-15T03:11:48.714Z,9.88
2018-05-15T03:12:48.614Z,9.83
2018-05-15T03:13:48.619Z,9.88
2018-05-15T03:14:48.614Z,9.96
2018-05-15T03:15:48.611Z,9.82
2018-05-15T03:16:48.611Z,9.88
2018-05-15T03:17:48.610Z,9.99
2018-05-15T03:18:48.609Z,10.01
2018-05-15T03:19:48.608Z,9.96
2018-05-15T03:20:48.607Z,9.93
2018-05-15T03:21:48.608Z,9.89
2018-05-15T03:22:48.605Z,9.85
2018-05-15T03:23:48.602Z,9.89
2018-05-15T03:24:48.601Z,9.93
2018-05-15T03:25:48.599Z,9.83
2018-05-15T03:26:48.599Z,9.89
2018-05-15T03:27:48.598Z,9.85
2018-05-15T03:28:48.596Z,9.76
2018-05-15T03:29:48.596Z,9.78
2018-05-15T03:30:48.595Z,9.85
2018-05-15T03:31:48.590Z,9.85
2018-05-15T03:32:48.590Z,9.79
2018-05-15T03:33:48.590Z,9.88
2018-05-15T03:34:48.591Z,9.83
2018-05-15T03:35:48.589Z,9.86
2018-05-15T03:36:48.588Z,9.76
2018-05-15T03:37:48.586Z,9.75
2018-05-15T03:38:48.585Z,9.64
2018-05-15T03:39:48.584Z,9.64
2018-05-15T03:40:48.581Z,9.66
2018-05-15T03:41:48.583Z,9.71
2018-05-15T03:42:48.580Z,9.67
2018-05-15T03:43:48.576Z,9.61
2018-05-15T03:44:48.573Z,9.61
2018-05-15T03:45:48.580Z,9.57
2018-05-15T03:46:48.576Z,9.49
2018-05-15T03:47:48.571Z,9.57
2018-05-15T03:48:48.572Z,9.45
2018-05-15T03:49:48.569Z,9.52
2018-05-15T03:50:48.568Z,9.45
2018-05-15T03:51:48.565Z,9.40
2018-05-15T03:52:48.565Z,9.40
2018-05-15T03:53:48.565Z,9.38
2018-05-15T03:54:48.563Z,9.42
2018-05-15T03:55:48.565Z,9.42
2018-05-15T03:56:48.558Z,9.52
2018-05-15T03:57:48.558Z,9.53
2018-05-15T03:58:48.557Z,9.50
2018-05-15T03:59:48.578Z,9.46
2018-05-15T04:00:48.555Z,9.48
2018-05-15T04:01:48.551Z,9.43
2018-05-15T04:02:48.553Z,9.46
2018-05-15T04:03:48.551Z,9.56
2018-05-15T04:04:48.548Z,9.53
2018-05-15T04:05:48.547Z,9.53
2018-05-15T04:06:48.546Z,9.68
2018-05-15T04:07:48.548Z,9.70
2018-05-15T04:08:48.542Z,9.82
2018-05-15T04:09:48.541Z,9.79
2018-05-15T04:10:48.598Z,9.88
2018-05-15T04:11:48.539Z,9.89
2018-05-15T04:12:48.537Z,9.82
2018-05-15T04:13:48.536Z,9.73
2018-05-15T04:14:48.536Z,9.75
2018-05-15T04:15:48.533Z,9.73
2018-05-15T04:16:48.532Z,9.68
2018-05-15T04:17:48.530Z,9.71
2018-05-15T04:18:48.529Z,9.61
2018-05-15T04:19:48.529Z,9.68
2018-05-15T04:20:48.526Z,9.61
2018-05-15T04:21:48.523Z,9.66
2018-05-15T04:22:48.525Z,9.76
2018-05-15T04:23:48.525Z,9.76
2018-05-15T04:24:48.519Z,9.82
2018-05-15T04:25:48.523Z,9.83
2018-05-15T04:26:48.519Z,9.86
2018-05-15T04:27:48.516Z,9.83
2018-05-15T04:28:48.515Z,9.88
2018-05-15T04:29:48.515Z,9.91
2018-05-15T04:30:48.545Z,10.04
2018-05-15T04:31:48.548Z,9.97
2018-05-15T04:32:48.561Z,10.04
2018-05-15T04:33:48.529Z,9.93
2018-05-15T04:34:48.514Z,10.12
2018-05-15T04:35:48.764Z,10.01
2018-05-15T04:39:06.909Z,10.17
2018-05-15T04:39:52.629Z,10.24
2018-05-15T04:40:52.589Z,10.24
2018-05-15T04:41:52.572Z,10.15
2018-05-15T04:42:52.572Z,10.25
2018-05-15T04:43:52.881Z,10.33
2018-05-15T04:44:52.586Z,10.40
2018-05-15T04:45:52.945Z,10.43
2018-05-15T04:46:52.809Z,10.47
2018-05-15T04:47:52.713Z,10.55
2018-05-15T04:48:52.672Z,10.52
2018-05-15T04:49:52.841Z,10.51
2018-05-15T04:50:52.660Z,10.51
2018-05-15T04:51:52.929Z,10.65
2018-05-15T04:54:20.002Z,10.77
2018-05-15T04:55:30.096Z,10.92
2018-05-15T04:57:15.317Z,11.09
2018-05-15T04:58:15.293Z,11.24
2018-05-15T05:00:13.734Z,11.43
2018-05-15T05:01:11.755Z,11.44
2018-05-15T05:02:11.777Z,11.47
2018-05-15T05:03:22.269Z,11.52
2018-05-15T05:05:06.165Z,11.68
2018-05-15T05:06:06.112Z,11.74
2018-05-15T05:08:02.058Z,11.80
2018-05-15T05:09:02.090Z,11.82
2018-05-15T05:10:02.048Z,11.83
2018-05-15T05:11:02.055Z,11.89
2018-05-15T05:12:02.012Z,11.94
2018-05-15T05:13:02.012Z,12.02
2018-05-15T05:14:02.040Z,12.05
2018-05-15T05:15:02.029Z,12.02
2018-05-15T05:16:01.993Z,12.06
2018-05-15T05:17:02.042Z,12.13
2018-05-15T05:18:01.996Z,12.19
2018-05-15T05:19:02.025Z,12.19
2018-05-15T05:20:02.004Z,12.23
2018-05-15T05:21:02.106Z,12.26
2018-05-15T05:22:01.989Z,12.26
2018-05-15T05:23:01.986Z,12.27
2018-05-15T05:24:02.012Z,12.30
2018-05-15T05:25:02.028Z,12.34
2018-05-15T05:26:01.990Z,12.41
2018-05-15T05:27:02.115Z,12.34
2018-05-15T05:28:02.031Z,12.49
2018-05-15T05:29:02.017Z,12.51
2018-05-15T05:30:02.075Z,12.48
2018-05-15T05:31:02.034Z,12.57
2018-05-15T05:32:01.987Z,12.69
2018-05-15T05:33:01.993Z,12.74
2018-05-15T05:34:03.542Z,12.71
2018-05-15T05:35:10.649Z,12.75
2018-05-15T05:36:56.396Z,12.79
2018-05-15T05:39:34.170Z,12.89
2018-05-15T05:40:53.568Z,12.92
2018-05-15T05:42:26.621Z,12.99
2018-05-15T05:43:36.509Z,13.14
2018-05-15T05:45:20.898Z,13.09
2018-05-15T05:46:20.948Z,13.21
2018-05-15T05:48:49.295Z,13.38
2018-05-15T05:49:49.244Z,13.41
2018-05-15T05:50:49.266Z,13.51
2018-05-15T05:51:49.324Z,13.56
2018-05-15T05:52:49.232Z,13.69
2018-05-15T05:53:49.285Z,13.67
2018-05-15T05:54:49.218Z,13.71
2018-05-15T05:55:49.220Z,13.79
2018-05-15T05:56:49.220Z,13.76
2018-05-15T05:57:49.219Z,13.81
2018-05-15T05:58:49.219Z,13.95
2018-05-15T05:59:49.222Z,13.99
2018-05-15T06:00:49.220Z,13.95
2018-05-15T06:01:49.225Z,14.04
2018-05-15T06:02:49.224Z,14.09
2018-05-15T06:03:49.224Z,14.19
2018-05-15T06:04:49.226Z,14.46
2018-05-15T06:05:49.227Z,14.71
2018-05-15T06:06:49.275Z,15.06
2018-05-15T06:07:49.229Z,15.33
2018-05-15T06:08:49.230Z,15.59
2018-05-15T06:09:49.232Z,16.00
2018-05-15T06:10:49.232Z,16.60
2018-05-15T06:11:49.234Z,16.95
2018-05-15T06:12:49.238Z,17.13
2018-05-15T06:13:49.238Z,17.41
2018-05-15T06:14:49.239Z,17.22
2018-05-15T06:15:49.247Z,17.28
2018-05-15T06:16:49.241Z,17.40
2018-05-15T06:17:49.244Z,17.59
2018-05-15T06:18:49.248Z,17.81
2018-05-15T06:19:49.252Z,17.62
2018-05-15T06:20:49.327Z,17.47
2018-05-15T06:21:49.257Z,17.48
2018-05-15T06:22:49.261Z,17.51
2018-05-15T06:23:49.260Z,17.46
2018-05-15T06:24:49.266Z,17.62
2018-05-15T06:25:49.271Z,17.57
2018-05-15T06:26:49.274Z,17.71
2018-05-15T06:27:49.295Z,17.92
2018-05-15T06:28:49.277Z,18.18
2018-05-15T06:29:49.327Z,18.43
2018-05-15T06:30:49.332Z,19.08
2018-05-15T06:31:49.294Z,19.25
2018-05-15T06:32:49.298Z,19.18
2018-05-15T06:33:49.327Z,19.13
2018-05-15T06:34:49.302Z,19.05
2018-05-15T06:35:49.304Z,18.98
2018-05-15T06:36:49.315Z,18.97
2018-05-15T06:37:49.314Z,18.80
2018-05-15T06:38:49.360Z,18.57
2018-05-15T06:39:49.340Z,18.50
2018-05-15T06:40:49.376Z,19.15
2018-05-15T06:41:49.344Z,19.35
2018-05-15T06:42:49.347Z,19.50
2018-05-15T06:45:23.595Z,19.84
2018-05-15T06:46:23.512Z,19.88
2018-05-15T06:47:23.493Z,20.06
2018-05-15T06:48:23.550Z,20.50
2018-05-15T06:49:23.512Z,20.98
2018-05-15T06:50:23.487Z,21.46
2018-05-15T06:51:23.505Z,21.39
2018-05-15T06:52:24.004Z,21.45
2018-05-15T06:53:23.505Z,20.49
2018-05-15T06:54:23.508Z,19.93
2018-05-15T06:55:23.521Z,19.47
2018-05-15T06:56:23.517Z,19.32
2018-05-15T06:57:23.521Z,19.40
2018-05-15T06:58:23.531Z,19.98
2018-05-15T06:59:23.538Z,20.59
2018-05-15T07:00:23.539Z,20.77
2018-05-15T07:01:23.541Z,20.15
2018-05-15T07:02:23.547Z,20.59
2018-05-15T07:03:23.580Z,20.69
2018-05-15T07:04:23.560Z,21.27
2018-05-15T07:05:23.566Z,21.60
2018-05-15T07:06:23.577Z,21.39
2018-05-15T07:07:23.581Z,21.91
2018-05-15T07:08:28.559Z,21.78
2018-05-15T07:09:23.601Z,21.85
2018-05-15T07:10:23.829Z,21.90
2018-05-15T07:11:23.673Z,21.97
2018-05-15T07:12:23.749Z,22.43
2018-05-15T07:13:24.607Z,22.78
2018-05-15T07:14:23.735Z,22.56
2018-05-15T07:16:55.745Z,21.76
2018-05-15T07:17:55.720Z,21.91
2018-05-15T07:18:55.732Z,22.35
2018-05-15T07:19:55.720Z,22.12
2018-05-15T07:20:55.729Z,21.99
2018-05-15T07:21:55.769Z,21.92
2018-05-15T07:22:55.872Z,21.54
2018-05-15T07:23:55.826Z,21.41
2018-05-15T07:24:55.769Z,21.30
2018-05-15T07:25:55.794Z,21.42
2018-05-15T07:26:55.793Z,21.57
2018-05-15T07:27:55.809Z,21.24
2018-05-15T07:28:55.795Z,21.29
2018-05-15T07:29:55.813Z,21.32
2018-05-15T07:30:55.821Z,21.60
2018-05-15T07:31:55.812Z,21.97
2018-05-15T07:32:55.812Z,22.32
2018-05-15T07:33:55.842Z,22.44
2018-05-15T07:34:55.840Z,22.56
2018-05-15T07:35:55.846Z,22.23
2018-05-15T07:36:55.881Z,22.25
2018-05-15T07:37:55.849Z,21.94
2018-05-15T07:38:55.868Z,21.91
2018-05-15T07:39:55.876Z,22.07
2018-05-15T07:40:55.896Z,22.19
2018-05-15T07:41:55.894Z,22.31
2018-05-15T07:42:56.001Z,22.38
2018-05-15T07:43:55.968Z,21.95
2018-05-15T07:44:55.910Z,20.95
2018-05-15T07:45:55.938Z,20.95
2018-05-15T07:46:55.931Z,21.16
2018-05-15T07:47:55.934Z,21.64
2018-05-15T07:48:55.940Z,22.16
2018-05-15T07:49:55.965Z,22.14
2018-05-15T07:50:55.969Z,21.54
2018-05-15T07:51:56.005Z,21.23
2018-05-15T07:52:56.000Z,20.66
2018-05-15T07:53:55.981Z,20.91
2018-05-15T07:54:55.987Z,20.68
2018-05-15T07:55:55.997Z,20.66
2018-05-15T07:56:56.021Z,20.34
2018-05-15T07:57:56.026Z,19.83
2018-05-15T07:58:56.046Z,19.43
2018-05-15T07:59:56.028Z,19.43
2018-05-15T08:00:56.036Z,19.70
2018-05-15T08:01:56.070Z,19.98
2018-05-15T08:02:56.058Z,19.95
2018-05-15T08:03:56.092Z,19.98
2018-05-15T08:04:56.090Z,19.86
2018-05-15T08:05:56.099Z,19.76
2018-05-15T08:06:56.284Z,19.43
2018-05-15T08:07:56.119Z,19.14
2018-05-15T08:08:56.148Z,19.01
2018-05-15T08:09:56.108Z,18.87
2018-05-15T08:10:56.139Z,19.08
2018-05-15T08:11:56.185Z,18.87
2018-05-15T08:12:56.149Z,18.99
2018-05-15T08:13:57.720Z,19.29
2018-05-15T08:14:56.151Z,19.63
2018-05-15T08:15:56.156Z,19.98
2018-05-15T08:16:56.169Z,19.75
2018-05-15T08:17:56.253Z,19.53
2018-05-15T08:18:56.183Z,19.42
2018-05-15T08:19:56.232Z,19.38
2018-05-15T08:20:56.191Z,19.36
2018-05-15T08:21:56.199Z,19.33
2018-05-15T08:22:56.265Z,19.23
2018-05-15T08:23:56.227Z,19.17
2018-05-15T08:24:56.234Z,19.06
2018-05-15T08:25:56.261Z,18.90
2018-05-15T08:26:56.237Z,18.90
2018-05-15T08:27:56.243Z,18.72
2018-05-15T08:28:56.250Z,18.57
2018-05-15T08:29:56.260Z,18.54
2018-05-15T08:30:56.330Z,18.28
2018-05-15T08:31:56.303Z,18.19
2018-05-15T08:32:56.278Z,18.21
2018-05-15T08:33:56.281Z,18.22
2018-05-15T08:34:56.318Z,18.18
2018-05-15T08:35:56.294Z,18.02
2018-05-15T08:36:56.302Z,18.18
2018-05-15T08:37:56.307Z,18.18
2018-05-15T08:38:56.315Z,18.21
2018-05-15T08:39:56.350Z,18.33
2018-05-15T08:40:56.335Z,18.27
2018-05-15T08:41:56.332Z,18.37
2018-05-15T08:42:58.212Z,18.37
2018-05-15T08:43:56.349Z,18.39
2018-05-15T08:44:56.357Z,18.42
2018-05-15T08:45:56.350Z,18.62
2018-05-15T08:46:56.359Z,18.86
2018-05-15T08:47:56.365Z,18.91
2018-05-15T08:48:56.370Z,19.02
2018-05-15T08:49:56.403Z,19.33
2018-05-15T08:50:56.408Z,19.61
2018-05-15T08:51:56.389Z,20.03
2018-05-15T08:52:56.471Z,20.42
2018-05-15T08:53:56.393Z,20.80
2018-05-15T08:54:56.403Z,20.90
2018-05-15T08:55:56.416Z,21.19
2018-05-15T08:56:56.417Z,21.27
2018-05-15T08:57:56.420Z,21.19
2018-05-15T08:58:56.430Z,21.06
2018-05-15T08:59:56.430Z,20.93
2018-05-15T09:00:56.436Z,20.86
2018-05-15T09:01:56.446Z,20.61
2018-05-15T09:02:56.458Z,20.35
2018-05-15T09:03:56.458Z,20.05
2018-05-15T09:04:56.462Z,19.79
2018-05-15T09:05:56.470Z,19.51
2018-05-15T09:06:56.476Z,19.08
2018-05-15T09:07:56.482Z,19.13
2018-05-15T09:08:56.487Z,19.08
2018-05-15T09:09:56.512Z,19.01
2018-05-15T09:10:56.496Z,18.80
2018-05-15T09:11:56.503Z,18.77
2018-05-15T09:12:56.505Z,18.87
2018-05-15T09:13:56.515Z,18.94
2018-05-15T09:14:56.524Z,18.87
2018-05-15T09:15:56.525Z,18.99
2018-05-15T09:16:56.530Z,19.20
2018-05-15T09:17:56.538Z,19.15
2018-05-15T09:18:56.561Z,19.28
2018-05-15T09:19:56.658Z,19.42
2018-05-15T09:20:56.593Z,19.55
2018-05-15T09:21:56.562Z,19.73
2018-05-15T09:22:56.564Z,19.76
2018-05-15T09:23:59.211Z,19.76
2018-05-15T09:24:56.575Z,19.68
2018-05-15T09:25:56.591Z,19.48
2018-05-15T09:26:56.589Z,19.40
2018-05-15T09:27:56.594Z,19.31
2018-05-15T09:28:56.601Z,19.13
2018-05-15T09:29:56.604Z,18.90
2018-05-15T09:30:56.615Z,18.92
2018-05-15T09:31:56.616Z,18.67
2018-05-15T09:32:56.620Z,18.87
2018-05-15T09:33:56.626Z,19.01
2018-05-15T09:34:56.632Z,19.20
2018-05-15T09:35:56.637Z,19.31
2018-05-15T09:36:56.642Z,19.38
2018-05-15T09:37:56.651Z,19.42
2018-05-15T09:38:56.654Z,19.46
2018-05-15T09:39:56.661Z,19.55
2018-05-15T09:40:56.664Z,19.68
2018-05-15T09:41:56.671Z,19.61
2018-05-15T09:42:56.677Z,19.68
2018-05-15T09:43:56.682Z,19.60
2018-05-15T09:44:56.687Z,19.58
2018-05-15T09:45:56.697Z,19.47
2018-05-15T09:46:56.753Z,19.39
2018-05-15T09:47:56.705Z,19.39
2018-05-15T09:48:56.709Z,19.40
2018-05-15T09:49:56.715Z,19.63
2018-05-15T09:50:56.720Z,19.61
2018-05-15T09:51:56.726Z,19.75
2018-05-15T09:52:56.737Z,19.80
2018-05-15T09:53:56.737Z,19.97
2018-05-15T09:54:56.744Z,20.03
2018-05-15T09:55:56.752Z,19.97
2018-05-15T09:56:56.760Z,20.16
2018-05-15T09:57:56.761Z,20.09
2018-05-15T09:58:56.767Z,19.86
2018-05-15T09:59:56.773Z,19.80
2018-05-15T10:00:56.778Z,19.94
2018-05-15T10:01:56.787Z,19.94
2018-05-15T10:02:56.790Z,19.87
2018-05-15T10:03:56.796Z,19.72
2018-05-15T10:04:56.801Z,19.84
2018-05-15T10:05:56.808Z,19.66
2018-05-15T10:06:56.812Z,19.57
2018-05-15T10:07:56.900Z,19.53
2018-05-15T10:08:56.823Z,19.54
2018-05-15T10:09:56.830Z,19.60
2018-05-15T10:10:56.836Z,19.54
2018-05-15T10:11:56.840Z,19.54
2018-05-15T10:12:56.848Z,19.36
2018-05-15T10:13:56.859Z,19.47
2018-05-15T10:14:56.859Z,19.50
2018-05-15T10:15:56.864Z,19.43
2018-05-15T10:16:56.867Z,19.39
2018-05-15T10:17:56.894Z,19.35
2018-05-15T10:18:56.880Z,19.39
2018-05-15T10:19:56.891Z,19.47
2018-05-15T10:20:56.891Z,19.13
2018-05-15T10:21:56.898Z,19.20
2018-05-15T10:22:56.903Z,19.68
2018-05-15T10:23:56.907Z,19.97
2018-05-15T10:24:56.913Z,20.20
2018-05-15T10:25:56.918Z,20.31
2018-05-15T10:26:56.924Z,20.62
2018-05-15T10:27:56.929Z,20.39
2018-05-15T10:28:56.937Z,20.24
2018-05-15T10:29:56.962Z,20.08
2018-05-15T10:30:56.946Z,19.91
2018-05-15T10:31:56.952Z,19.63
2018-05-15T10:32:56.959Z,19.63
2018-05-15T10:33:56.962Z,19.78
2018-05-15T10:34:56.966Z,19.93
2018-05-15T10:35:56.973Z,20.18
2018-05-15T10:36:56.979Z,20.61
2018-05-15T10:37:56.985Z,21.04
2018-05-15T10:38:56.991Z,21.29
2018-05-15T10:39:56.996Z,21.69
2018-05-15T10:40:57.002Z,21.69
2018-05-15T10:41:57.008Z,21.85
2018-05-15T10:42:57.015Z,22.06
2018-05-15T10:43:57.072Z,22.09
2018-05-15T10:44:57.034Z,22.06
2018-05-15T10:45:57.033Z,21.90
2018-05-15T10:46:57.037Z,21.91
2018-05-15T10:47:57.046Z,21.69
2018-05-15T10:48:57.053Z,21.57
2018-05-15T10:49:57.058Z,21.39
2018-05-15T10:50:57.094Z,21.14
2018-05-15T10:51:57.149Z,21.11
2018-05-15T10:52:57.073Z,20.98
2018-05-15T10:53:57.146Z,20.96
2018-05-15T10:54:57.108Z,20.95
2018-05-15T10:55:57.093Z,20.93
2018-05-15T10:56:57.097Z,20.76
2018-05-15T10:57:57.104Z,20.62
2018-05-15T10:58:57.111Z,20.53
2018-05-15T10:59:57.116Z,20.43
2018-05-15T11:00:57.141Z,20.51
2018-05-15T11:01:57.130Z,20.72
2018-05-15T11:02:57.140Z,20.77
2018-05-15T11:03:57.140Z,20.89
2018-05-15T11:04:57.146Z,20.96
2018-05-15T11:05:57.254Z,20.95
2018-05-15T11:06:57.156Z,20.98
2018-05-15T11:07:57.164Z,20.95
2018-05-15T11:08:57.169Z,20.95
2018-05-15T11:09:57.178Z,21.02
2018-05-15T11:10:57.183Z,20.95
2018-05-15T11:11:57.191Z,20.86
2018-05-15T11:12:57.193Z,20.89
2018-05-15T11:13:57.200Z,20.89
2018-05-15T11:14:57.205Z,20.95
2018-05-15T11:15:57.212Z,20.95
2018-05-15T11:16:57.226Z,21.05
2018-05-15T11:17:57.222Z,21.02
2018-05-15T11:18:57.230Z,21.04
2018-05-15T11:19:57.237Z,20.93
2018-05-15T11:20:57.241Z,20.84
2018-05-15T11:21:57.246Z,20.91
2018-05-15T11:22:57.285Z,20.93
2018-05-15T11:23:57.275Z,21.04
2018-05-15T11:24:57.264Z,21.16
2018-05-15T11:25:57.270Z,21.39
2018-05-15T11:26:57.281Z,21.56
2018-05-15T11:27:57.281Z,21.63
2018-05-15T11:28:57.287Z,21.81
2018-05-15T11:29:57.294Z,22.06
2018-05-15T11:31:00.243Z,22.32
2018-05-15T11:31:57.305Z,22.27
2018-05-15T11:32:57.310Z,22.43
2018-05-15T11:33:57.317Z,22.28
2018-05-15T11:34:57.324Z,22.34
2018-05-15T11:35:57.378Z,22.38
2018-05-15T11:36:57.332Z,22.54
2018-05-15T11:37:57.340Z,22.38
2018-05-15T11:38:57.347Z,22.34
2018-05-15T11:39:57.355Z,22.25
2018-05-15T11:40:57.360Z,22.20
2018-05-15T11:41:57.399Z,22.02
2018-05-15T11:42:57.377Z,21.71
2018-05-15T11:43:57.402Z,21.63
2018-05-15T11:44:57.386Z,21.32
2018-05-15T11:45:57.392Z,20.99
2018-05-15T11:46:57.402Z,20.65
2018-05-15T11:47:57.534Z,20.33
2018-05-15T11:48:57.919Z,20.24
2018-05-15T11:49:57.995Z,20.18
2018-05-15T11:50:58.002Z,20.20
2018-05-15T11:51:58.064Z,20.16
2018-05-15T11:52:58.160Z,20.23
2018-05-15T11:53:57.521Z,20.09
2018-05-15T11:54:57.448Z,20.00
2018-05-15T11:55:57.520Z,19.94
2018-05-15T11:56:57.465Z,19.91
2018-05-15T11:57:57.466Z,19.98
2018-05-15T11:58:57.632Z,19.94
2018-05-15T12:00:00.343Z,19.97
2018-05-15T12:00:57.479Z,19.97
2018-05-15T12:01:57.484Z,19.97
2018-05-15T12:02:57.490Z,19.98
2018-05-15T12:03:57.572Z,20.03
2018-05-15T12:04:57.501Z,20.02
2018-05-15T12:05:57.507Z,19.94
2018-05-15T12:06:57.513Z,20.05
2018-05-15T12:07:57.597Z,19.97
2018-05-15T12:08:57.583Z,19.86
2018-05-15T12:09:57.530Z,19.83
2018-05-15T12:10:57.533Z,19.83
2018-05-15T12:11:57.540Z,19.91
2018-05-15T12:12:57.698Z,20.02
2018-05-15T12:13:57.550Z,20.08
2018-05-15T12:14:57.662Z,20.21
2018-05-15T12:15:57.566Z,20.20
2018-05-15T12:16:57.570Z,20.24
2018-05-15T12:17:57.576Z,20.20
2018-05-15T12:18:57.579Z,20.20
2018-05-15T12:19:57.584Z,20.30
2018-05-15T12:20:57.631Z,20.28
2018-05-15T12:21:57.594Z,20.21
2018-05-15T12:22:57.601Z,20.27
2018-05-15T12:23:57.607Z,20.31
2018-05-15T12:24:57.610Z,20.34
2018-05-15T12:25:57.688Z,20.62
2018-05-15T12:26:57.622Z,20.66
2018-05-15T12:27:57.634Z,20.96
2018-05-15T12:28:57.635Z,21.11
2018-05-15T12:29:57.721Z,21.23
2018-05-15T12:30:57.645Z,21.44
2018-05-15T12:31:57.656Z,21.60
2018-05-15T12:32:57.656Z,21.69
2018-05-15T12:33:57.662Z,21.66
2018-05-15T12:34:57.669Z,21.74
2018-05-15T12:35:57.676Z,21.60
2018-05-15T12:36:57.678Z,21.57
2018-05-15T12:37:57.687Z,21.46
2018-05-15T12:38:57.691Z,21.26
2018-05-15T12:39:57.700Z,21.04
2018-05-15T12:40:57.701Z,20.76
2018-05-15T12:41:57.861Z,20.68
2018-05-15T12:42:57.716Z,20.59
2018-05-15T12:43:57.719Z,20.61
2018-05-15T12:44:57.724Z,20.65
2018-05-15T12:45:57.732Z,20.68
2018-05-15T12:46:57.736Z,20.61
2018-05-15T12:47:57.808Z,20.65
2018-05-15T12:48:57.748Z,20.59
2018-05-15T12:49:57.758Z,20.25
2018-05-15T12:50:57.759Z,20.21
2018-05-15T12:51:57.765Z,20.06
2018-05-15T12:52:57.770Z,20.05
2018-05-15T12:53:57.854Z,20.24
2018-05-15T12:54:57.788Z,20.23
2018-05-15T12:55:57.789Z,20.25
2018-05-15T12:56:57.792Z,20.30
2018-05-15T12:57:57.798Z,20.31
2018-05-15T12:58:57.824Z,20.23
2018-05-15T12:59:57.809Z,19.98
2018-05-15T13:00:57.815Z,19.94
2018-05-15T13:01:57.824Z,20.18
2018-05-15T13:02:57.831Z,20.46
2018-05-15T13:03:57.838Z,20.50
2018-05-15T13:04:57.837Z,20.59
2018-05-15T13:05:59.777Z,20.53
2018-05-15T13:06:57.847Z,20.53
2018-05-15T13:07:57.855Z,20.47
2018-05-15T13:08:57.862Z,20.47
2018-05-15T13:09:57.901Z,20.49
2018-05-15T13:10:57.870Z,20.42
2018-05-15T13:11:57.876Z,20.49
2018-05-15T13:12:57.880Z,20.56